Time;durP1;ratioP1;P1;durP2;ratioP2;P2;SDS_P1;SDS_P2;PMS_P1;PMS_P2;Temp;Humidity;BMP_temperature;BMP_pressure;BME280_temperature;BME280_humidity;BME280_pressure;Samples;Min_cycle;Max_cycle;Signal;HPM_P1;HPM_P2
2023/03/10 07:35:07;;;;;;;1.17;1.07;;;10.50;99.90;11.70;98216.00;;;;6391919;22;20198;-71
2023/03/10 07:37:38;;;;;;;1.00;1.00;;;10.30;99.90;12.00;98233.00;;;;6284667;22;1303176;-71
2023/03/10 07:40:08;;;;;;;1.10;1.10;;;10.30;99.90;11.30;98240.00;;;;6339140;22;20147;-71
2023/03/10 07:42:54;;;;;;;2.00;2.00;;;10.20;99.90;11.60;98231.00;;;;6338350;22;20178;-69
2023/03/10 07:45:31;;;;;;;1.80;1.80;;;10.20;99.90;11.30;98203.00;;;;6236405;22;20220;-69
2023/03/10 07:48:03;;;;;;;1.70;1.70;;;10.00;99.90;11.80;98236.00;;;;6338350;22;20155;-69
2023/03/10 07:50:59;;;;;;;1.40;1.40;;;10.00;99.90;11.40;98235.00;;;;6312670;22;20163;-69
2023/03/10 07:53:37;;;;;;;2.00;1.90;;;10.00;99.90;11.80;98237.00;;;;6338744;22;20224;-69
2023/03/10 07:56:13;;;;;;;1.40;1.40;;;10.00;99.90;11.70;98232.00;;;;6312522;22;20154;-69
2023/03/10 07:59:02;;;;;;;1.67;1.57;;;10.00;99.90;11.30;98240.00;;;;6338651;22;20143;-69
2023/03/10 08:01:34;;;;;;;2.47;2.37;;;10.00;99.90;12.10;98231.00;;;;6338563;22;20152;-69
2023/03/10 08:04:00;;;;;;;1.30;1.30;;;10.00;99.90;11.90;98196.00;;;;6311441;22;20216;-69
2023/03/10 08:06:33;;;;;;;1.43;1.43;;;10.00;99.90;12.10;98220.00;;;;6338152;22;20147;-69
2023/03/10 08:09:06;;;;;;;1.40;1.40;;;10.00;99.90;11.70;98221.00;;;;6313161;22;20580;-69
2023/03/10 08:11:37;;;;;;;1.20;1.20;;;10.10;99.90;11.90;98219.00;;;;6313204;22;20481;-69
2023/03/10 08:14:30;;;;;;;1.30;1.30;;;10.00;99.90;11.50;98205.00;;;;6338720;22;20200;-69
2023/03/10 08:16:59;;;;;;;1.50;1.50;;;9.90;99.90;11.80;98234.00;;;;6291090;22;20178;-69
2023/03/10 08:19:37;;;;;;;1.10;1.10;;;10.00;99.90;11.80;98222.00;;;;6312570;22;20598;-69
2023/03/10 08:22:06;;;;;;;1.20;1.20;;;10.00;99.90;11.60;98226.00;;;;6339537;22;20140;-70
2023/03/10 08:24:42;;;;;;;1.93;1.83;;;10.00;99.90;11.70;98223.00;;;;6338415;22;20132;-70
2023/03/10 08:27:13;;;;;;;1.20;1.20;;;10.00;99.90;11.90;98219.00;;;;6313453;22;20166;-69
2023/03/10 08:29:47;;;;;;;1.33;1.33;;;10.00;99.90;11.50;98217.00;;;;6339006;22;20424;-69
2023/03/10 08:32:17;;;;;;;1.40;1.40;;;10.00;99.90;11.40;98202.00;;;;6312150;22;20210;-69
2023/03/10 08:34:48;;;;;;;1.50;1.40;;;9.90;99.90;11.10;98227.00;;;;6312581;22;20152;-69
2023/03/10 08:37:17;;;;;;;1.60;1.50;;;9.80;99.90;11.50;98227.00;;;;6312112;22;20171;-69
2023/03/10 08:39:43;;;;;;;1.20;1.20;;;9.80;99.90;11.20;98220.00;;;;6338663;22;20188;-69
2023/03/10 08:42:15;;;;;;;1.07;1.07;;;9.80;99.90;11.50;98198.00;;;;6338314;22;20563;-69
2023/03/10 08:44:47;;;;;;;1.50;1.40;;;9.80;99.90;11.50;98211.00;;;;6312414;22;20152;-69
2023/03/10 08:47:22;;;;;;;1.33;1.33;;;9.80;99.90;11.40;98217.00;;;;6312849;22;20179;-69
2023/03/10 08:49:54;;;;;;;1.10;1.10;;;9.90;99.90;11.80;98214.00;;;;6338326;22;20491;-68
2023/03/10 08:52:20;;;;;;;1.00;1.00;;;10.00;99.90;11.90;98214.00;;;;6337926;22;20266;-69
2023/03/10 08:54:46;;;;;;;1.00;1.00;;;10.00;99.90;11.60;98196.00;;;;6338427;22;20554;-69
2023/03/10 08:57:15;;;;;;;1.33;0.90;;;10.00;99.90;11.50;98215.00;;;;6312165;22;20156;-70
2023/03/10 08:59:44;;;;;;;1.40;1.30;;;9.90;99.90;11.80;98226.00;;;;6313046;22;20166;-70
2023/03/10 09:02:14;;;;;;;1.07;1.07;;;10.00;99.90;12.00;98230.00;;;;6311939;22;20155;-70
2023/03/10 09:04:49;;;;;;;1.10;1.10;;;10.00;99.90;11.90;98223.00;;;;6338106;22;20219;-69
2023/03/10 09:07:21;;;;;;;1.23;1.23;;;10.10;99.90;11.60;98234.00;;;;6311934;22;20160;-70
2023/03/10 09:09:47;;;;;;;1.33;1.33;;;10.00;99.90;11.50;98231.00;;;;6312233;22;20179;-70
2023/03/10 09:12:16;;;;;;;1.20;1.20;;;10.00;99.90;11.50;98234.00;;;;6311948;22;20199;-70
2023/03/10 09:14:51;;;;;;;15.67;2.07;;;10.00;99.90;11.70;98229.00;;;;6312732;22;20155;-70
2023/03/10 09:17:28;;;;;;;1.00;1.00;;;10.00;99.90;12.10;98218.00;;;;6337627;22;20151;-70
2023/03/10 09:19:54;;;;;;;1.00;1.00;;;10.10;99.90;11.60;98240.00;;;;6337606;22;20141;-69
2023/03/10 09:22:28;;;;;;;1.07;1.07;;;10.10;99.90;11.60;98219.00;;;;6312067;22;20166;-71
2023/03/10 09:24:57;;;;;;;0.80;0.80;;;10.00;99.90;12.20;98235.00;;;;6337711;22;20136;-70
2023/03/10 09:27:24;;;;;;;0.90;0.90;;;10.20;99.90;12.40;98237.00;;;;6337981;22;20136;-71
2023/03/10 09:29:53;;;;;;;1.13;1.13;;;10.30;99.90;11.80;98224.00;;;;6337939;22;20139;-71
2023/03/10 09:32:24;;;;;;;1.23;1.23;;;10.30;99.90;12.80;98230.00;;;;6311586;22;20191;-71
2023/03/10 09:34:53;;;;;;;0.90;0.90;;;10.50;99.90;11.10;98230.00;;;;6339238;22;20157;-71
2023/03/10 09:37:25;;;;;;;0.83;0.83;;;10.10;99.90;11.50;98212.00;;;;6338032;22;20197;-71
2023/03/10 09:39:52;;;;;;;1.20;1.20;;;10.10;99.90;12.10;98238.00;;;;6337917;22;20168;-71
2023/03/10 09:42:40;;;;;;;0.90;0.90;;;10.30;99.90;12.20;98221.00;;;;6311991;22;20161;-71
2023/03/10 09:45:28;;;;;;;0.90;0.90;;;10.40;99.90;12.00;98252.00;;;;6337819;22;20465;-70
2023/03/10 09:48:25;;;;;;;1.03;1.03;;;10.40;99.90;11.70;98249.00;;;;6337988;22;20527;-70
2023/03/10 09:50:55;;;;;;;0.80;0.80;;;10.40;99.90;12.40;98262.00;;;;6339481;22;20141;-71
2023/03/10 09:54:03;;;;;;;1.00;1.00;;;10.50;99.90;11.50;98244.00;;;;6312200;22;20185;-71
2023/03/10 09:56:38;;;;;;;1.10;1.10;;;10.30;99.90;12.00;98275.00;;;;6317036;22;20181;-71
2023/03/10 09:59:20;;;;;;;1.00;1.00;;;10.40;99.90;12.50;98242.00;;;;6337966;22;20215;-72
2023/03/10 10:01:59;;;;;;;1.63;1.60;;;10.40;99.90;12.80;98273.00;;;;6337930;22;20172;-71
2023/03/10 10:04:52;;;;;;;0.90;0.90;;;10.70;99.90;13.50;98274.00;;;;6337217;22;20159;-71
2023/03/10 10:07:22;;;;;;;0.90;0.90;;;11.00;99.90;12.50;98264.00;;;;6314960;22;20578;-71
2023/03/10 10:10:18;;;;;;;1.00;1.00;;;10.80;99.90;13.40;98254.00;;;;6337661;22;20220;-72
2023/03/10 10:12:53;;;;;;;1.17;1.17;;;11.00;99.90;13.30;98279.00;;;;6162724;23;20240;-71
2023/03/10 10:15:29;;;;;;;0.90;0.90;;;11.20;99.90;12.30;98286.00;;;;6337667;22;20149;-72
2023/03/10 10:18:30;;;;;;;0.90;0.90;;;10.80;99.90;11.60;98302.00;;;;6311606;22;20509;-71
2023/03/10 10:33:29;;;;;;;0.30;0.30;;;10.10;99.90;12.40;98335.00;;;;5070214;28;20566;-73
2023/03/10 10:36:07;;;;;;;2.97;1.13;;;10.50;99.90;12.40;98297.00;;;;5028879;28;20206;-72
2023/03/10 10:38:39;;;;;;;6.33;1.87;;;10.70;99.90;13.00;98297.00;;;;5065360;28;20211;-73
2023/03/10 10:41:20;;;;;;;1.53;1.43;;;10.80;99.90;11.60;98298.00;;;;5048859;28;20232;-72
2023/03/10 10:43:51;;;;;;;1.47;1.37;;;10.70;99.90;12.60;98295.00;;;;5049442;28;20233;-73
2023/03/10 10:46:51;;;;;;;3.23;2.20;;;10.70;99.90;11.70;98300.00;;;;5048623;28;20186;-72
2023/03/10 10:49:32;;;;;;;2.33;2.10;;;10.70;99.90;12.00;98316.00;;;;5045947;28;20188;-72
2023/03/10 10:52:23;;;;;;;2.20;1.90;;;10.70;99.90;12.40;98320.00;;;;5029839;28;20214;-72
2023/03/10 10:54:58;;;;;;;5.38;4.97;;;10.90;99.90;12.60;98325.00;;;;5079401;28;20474;-73
2023/03/10 10:57:34;;;;;;;3.07;2.77;;;10.90;99.90;12.20;98339.00;;;;5033311;28;20215;-72
2023/03/10 11:00:24;;;;;;;2.70;2.50;;;10.80;99.90;11.90;98344.00;;;;5063590;28;20191;-72
2023/03/10 11:02:55;;;;;;;1.60;1.50;;;10.80;99.90;12.00;98341.00;;;;5043825;28;20195;-72
2023/03/10 11:05:37;;;;;;;1.60;1.50;;;10.70;99.90;12.60;98351.00;;;;5029675;28;20203;-72
2023/03/10 11:08:37;;;;;;;2.47;2.27;;;11.00;99.90;12.20;98349.00;;;;5080186;28;20189;-72
2023/03/10 11:11:57;;;;;;;3.20;2.90;;;11.00;99.90;12.00;98342.00;;;;5031581;28;20201;-72
2023/03/10 11:14:55;;;;;;;0.60;0.60;;;10.80;99.90;12.60;98339.00;;;;5048143;28;20273;-72
2023/03/10 11:17:44;;;;;;;2.90;2.50;;;10.90;99.90;12.50;98317.00;;;;5048659;28;20205;-72
2023/03/10 11:20:50;;;;;;;3.83;3.43;;;11.00;99.90;12.30;98317.00;;;;5034805;28;20194;-72
2023/03/10 11:23:33;;;;;;;1.77;1.67;;;11.10;99.90;12.40;98323.00;;;;5048258;28;20192;-72
2023/03/10 11:27:00;;;;;;;6.13;5.20;;;11.10;99.90;12.60;98319.00;;;;5045237;28;20247;-72
2023/03/10 11:29:46;;;;;;;2.97;2.63;;;11.20;99.90;12.00;98304.00;;;;5028665;28;20280;-72
2023/03/10 11:32:40;;;;;;;6.20;5.27;;;11.10;99.90;12.30;98321.00;;;;5040964;28;20230;-72
2023/03/10 11:35:44;;;;;;;4.17;3.77;;;11.30;99.90;12.50;98327.00;;;;5049079;28;20264;-72
2023/03/10 11:38:22;;;;;;;4.20;3.83;;;11.20;99.90;11.90;98329.00;;;;5047617;28;20188;-72
2023/03/10 11:41:04;;;;;;;3.77;2.87;;;11.30;99.90;12.60;98342.00;;;;5048994;28;20187;-72
2023/03/10 11:43:56;;;;;;;2.50;2.30;;;11.30;99.90;12.70;98336.00;;;;5041731;28;20184;-72
2023/03/10 11:46:43;;;;;;;2.20;2.07;;;11.50;99.90;12.50;98320.00;;;;5015866;28;20199;-72
2023/03/10 11:49:23;;;;;;;3.23;2.43;;;11.40;99.90;12.40;98296.00;;;;5018247;28;20723;-72
2023/03/10 11:51:54;;;;;;;4.87;2.87;;;11.30;99.90;12.90;98328.00;;;;5034295;28;20234;-72
2023/03/10 11:54:57;;;;;;;1.43;1.33;;;11.50;99.90;12.70;98334.00;;;;5035977;28;20192;-72
2023/03/10 11:57:27;;;;;;;0.80;0.80;;;11.50;99.90;12.50;98334.00;;;;5011174;28;20189;-72
2023/03/10 12:00:03;;;;;;;1.73;1.63;;;11.30;99.90;12.30;98343.00;;;;5034349;28;20180;-71
2023/03/10 12:03:07;;;;;;;2.33;1.53;;;11.30;99.90;12.10;98344.00;;;;5034507;28;20192;-72
2023/03/10 12:06:08;;;;;;;1.20;1.10;;;11.10;99.90;11.60;98350.00;;;;5030998;28;20190;-72
2023/03/10 12:08:35;;;;;;;1.50;1.40;;;11.00;99.90;11.50;98357.00;;;;5019897;28;20202;-71
2023/03/10 12:11:13;;;;;;;3.07;2.03;;;10.80;99.90;11.00;98370.00;;;;5034211;28;20182;-71
2023/03/10 12:13:51;;;;;;;8.13;5.53;;;10.50;99.90;10.80;98372.00;;;;5030766;28;20199;-72
2023/03/10 12:16:24;;;;;;;4.87;3.93;;;10.20;99.90;10.50;98350.00;;;;5065616;28;20648;-72
2023/03/10 12:18:52;;;;;;;3.33;3.03;;;9.90;99.90;10.60;98403.00;;;;5017654;28;20188;-72
2023/03/10 12:21:29;;;;;;;4.90;4.30;;;9.80;99.90;10.60;98407.00;;;;5025501;28;20638;-72
2023/03/10 12:24:01;;;;;;;5.07;4.67;;;9.70;99.90;10.70;98417.00;;;;5032570;28;20673;-71
2023/03/10 12:26:43;;;;;;;4.50;3.67;;;9.70;99.90;10.60;98424.00;;;;5018602;28;20194;-72
2023/03/10 12:29:21;;;;;;;8.20;3.27;;;9.70;99.90;10.70;98433.00;;;;5033757;28;20192;-71
2023/03/10 12:31:50;;;;;;;2.10;1.80;;;9.70;99.90;10.50;98429.00;;;;5058924;28;20226;-72
2023/03/10 12:34:30;;;;;;;2.63;2.43;;;9.50;99.90;10.30;98429.00;;;;5033636;28;20182;-72
2023/03/10 12:37:21;;;;;;;3.80;3.50;;;9.50;99.90;10.70;98440.00;;;;5017094;28;20188;-72
2023/03/10 12:39:50;;;;;;;4.90;4.40;;;9.40;99.90;10.10;98427.00;;;;5030520;28;20252;-72
2023/03/10 12:42:28;;;;;;;2.60;2.40;;;9.20;99.90;10.00;98433.00;;;;5043431;28;20199;-72
2023/03/10 12:45:27;;;;;;;2.97;2.77;;;9.10;99.90;10.10;98421.00;;;;5050245;28;20193;-71
2023/03/10 12:48:25;;;;;;;4.10;2.83;;;9.20;99.90;10.00;98430.00;;;;5024809;28;20660;-71
2023/03/10 12:51:00;;;;;;;1.43;1.30;;;9.10;99.90;10.10;98430.00;;;;5021905;28;20259;-73
2023/03/10 12:53:44;;;;;;;3.63;3.00;;;9.10;99.90;10.30;98429.00;;;;5016559;28;20232;-72
2023/03/10 12:56:27;;;;;;;2.70;2.00;;;9.20;99.90;9.80;98419.00;;;;5041457;28;20188;-72
2023/03/10 12:59:16;;;;;;;2.80;2.23;;;9.20;99.90;10.30;98422.00;;;;5032151;28;20178;-72
2023/03/10 13:01:50;;;;;;;2.30;2.10;;;9.20;99.90;9.90;98433.00;;;;5017625;28;20193;-72
2023/03/10 13:04:23;;;;;;;2.33;2.13;;;9.20;99.90;10.20;98444.00;;;;5043719;28;20229;-72
2023/03/10 13:07:02;;;;;;;2.80;2.57;;;9.20;99.90;10.00;98427.00;;;;5022108;28;20184;-72
2023/03/10 13:09:37;;;;;;;4.40;2.50;;;9.20;99.90;10.00;98475.00;;;;5016348;28;20189;-72
2023/03/10 13:12:12;;;;;;;6.40;3.00;;;9.00;99.90;10.00;98475.00;;;;5032695;28;20205;-72
2023/03/10 13:14:41;;;;;;;2.37;2.17;;;9.00;99.90;10.00;98490.00;;;;5015919;28;20620;-72
2023/03/10 13:17:42;;;;;;;3.63;3.33;;;9.00;99.90;9.60;98514.00;;;;5029462;28;20508;-71
2023/03/10 13:20:18;;;;;;;0.67;0.67;;;8.80;99.90;10.50;98596.00;;;;5020887;28;20204;-71
2023/03/10 13:22:58;;;;;;;1.43;1.30;;;8.80;99.90;10.00;98608.00;;;;5032823;28;20191;-71
2023/03/10 13:25:25;;;;;;;1.33;1.23;;;8.70;99.90;9.30;98619.00;;;;5016361;28;20187;-71
2023/03/10 13:27:53;;;;;;;1.20;1.20;;;8.20;99.90;8.80;98643.00;;;;5032805;28;20196;-71
2023/03/10 13:30:25;;;;;;;0.80;0.80;;;7.60;99.90;8.30;98646.00;;;;5032957;28;20609;-71
2023/03/10 13:33:04;;;;;;;0.90;0.90;;;7.20;99.90;8.70;98664.00;;;;5032276;28;20245;-71
2023/03/10 13:35:36;;;;;;;1.10;1.07;;;7.10;99.90;8.30;98686.00;;;;5016374;28;20192;-71
2023/03/10 13:38:25;;;;;;;0.80;0.80;;;6.90;99.90;7.90;98712.00;;;;5059765;28;20185;-71
2023/03/10 13:41:09;;;;;;;0.87;0.87;;;6.60;99.90;7.70;98723.00;;;;5048317;28;20637;-71
2023/03/10 13:43:47;;;;;;;1.10;1.10;;;6.50;99.90;6.90;98733.00;;;;5011268;28;20561;-71
2023/03/10 13:46:29;;;;;;;3.80;1.23;;;6.10;99.90;6.30;98753.00;;;;5032826;28;20194;-71
2023/03/10 13:49:05;;;;;;;1.10;1.10;;;5.80;99.90;6.70;98772.00;;;;5013749;28;20659;-71
2023/03/10 13:51:36;;;;;;;1.27;1.17;;;5.80;99.90;6.70;98796.00;;;;5064591;28;20208;-71
2023/03/10 13:54:23;;;;;;;2.50;1.80;;;5.60;99.90;6.30;98837.00;;;;5015728;28;20647;-72
2023/03/10 13:57:06;;;;;;;1.47;1.37;;;5.50;99.90;5.90;98864.00;;;;5024056;28;20185;-72
2023/03/10 13:59:39;;;;;;;3.10;2.87;;;5.20;99.90;5.50;98866.00;;;;5032109;28;20182;-72
2023/03/10 14:02:32;;;;;;;2.90;2.70;;;5.00;99.90;5.30;98902.00;;;;5023971;28;20661;-72
2023/03/10 14:05:05;;;;;;;2.57;1.63;;;4.80;99.90;6.00;98916.00;;;;5025227;28;20203;-72
2023/03/10 14:07:37;;;;;;;1.63;1.53;;;4.90;99.90;5.50;98963.00;;;;5016376;28;20234;-73
2023/03/10 14:10:06;;;;;;;1.97;1.87;;;4.80;99.90;5.30;98950.00;;;;5031593;28;20183;-73
2023/03/10 14:12:40;;;;;;;2.60;1.43;;;4.70;99.90;6.10;99022.00;;;;5032127;28;20203;-73
2023/03/10 14:15:21;;;;;;;1.43;1.03;;;4.70;99.90;6.00;99039.00;;;;5031683;28;20195;-73
2023/03/10 14:17:51;;;;;;;7.97;2.27;;;4.80;99.90;5.50;99063.00;;;;5032316;28;20187;-73
2023/03/10 14:20:50;;;;;;;1.40;1.30;;;4.70;99.90;6.10;99072.00;;;;5033038;28;20183;-73
2023/03/10 14:23:27;;;;;;;2.43;2.23;;;4.80;99.90;6.20;99085.00;;;;5012463;28;20200;-70
2023/03/10 14:26:15;;;;;;;4.10;1.13;;;5.00;99.90;5.40;99056.00;;;;5058938;28;20211;-71
2023/03/10 14:28:42;;;;;;;1.87;1.77;;;4.70;99.90;5.50;99110.00;;;;5031319;28;20662;-71
2023/03/10 14:31:34;;;;;;;3.43;2.10;;;4.60;99.90;5.60;99132.00;;;;5015334;28;20213;-71
2023/03/10 14:34:06;;;;;;;8.50;2.53;;;4.50;99.90;5.10;99142.00;;;;5062901;28;20264;-72
2023/03/10 14:36:34;;;;;;;1.70;1.50;;;4.40;99.90;5.30;99164.00;;;;5015203;28;20181;-71
2023/03/10 14:39:00;;;;;;;1.93;1.83;;;4.40;99.90;5.50;99183.00;;;;5021092;28;20594;-71
2023/03/10 14:41:32;;;;;;;5.87;3.17;;;4.40;99.90;4.90;99195.00;;;;5010146;28;20187;-71
2023/03/10 14:44:03;;;;;;;3.17;2.80;;;4.30;99.90;4.90;99209.00;;;;5031842;28;20207;-71
2023/03/10 14:46:31;;;;;;;2.60;1.83;;;4.20;99.90;4.70;99228.00;;;;5014577;28;20598;-71
2023/03/10 14:49:25;;;;;;;2.03;1.93;;;4.00;99.90;4.60;99238.00;;;;5031612;28;20198;-71
2023/03/10 14:52:19;;;;;;;11.10;2.33;;;4.00;99.90;5.30;99271.00;;;;5027758;28;20265;-71
2023/03/10 14:55:17;;;;;;;3.87;3.57;;;4.10;99.90;4.70;99290.00;;;;5034099;28;20646;-71
2023/03/10 14:57:47;;;;;;;3.33;2.13;;;4.00;99.90;4.50;99258.00;;;;5013896;28;20274;-71
2023/03/10 15:00:37;;;;;;;2.70;2.47;;;3.90;99.90;4.40;99288.00;;;;5029909;28;20194;-71
2023/03/10 15:03:22;;;;;;;3.37;2.77;;;3.80;99.90;4.50;99317.00;;;;5031397;28;20191;-72
2023/03/10 15:05:51;;;;;;;2.03;1.93;;;3.80;99.90;5.20;99287.00;;;;5031213;28;20187;-72
2023/03/10 15:08:29;;;;;;;2.10;1.97;;;3.90;99.90;5.00;99323.00;;;;5039212;28;20586;-71
2023/03/10 15:11:19;;;;;;;2.17;2.07;;;4.00;99.90;5.30;99360.00;;;;5032519;28;20187;-73
2023/03/10 15:13:53;;;;;;;4.00;2.63;;;4.10;99.90;5.00;99402.00;;;;5010492;28;20202;-72
2023/03/10 15:16:22;;;;;;;5.43;4.03;;;4.10;99.90;5.00;99405.00;;;;5022806;28;20186;-71
2023/03/10 15:18:54;;;;;;;2.00;1.90;;;4.10;99.90;4.80;99466.00;;;;5038962;28;20305;-72
2023/03/10 15:21:25;;;;;;;3.07;2.53;;;4.00;99.90;5.30;99469.00;;;;5049062;28;20236;-71
2023/03/10 15:23:57;;;;;;;2.00;1.80;;;4.20;99.90;4.90;99464.00;;;;5036154;28;20183;-72
2023/03/10 15:26:42;;;;;;;2.10;1.77;;;4.10;99.90;5.30;99469.00;;;;5035216;28;20186;-72
2023/03/10 15:29:19;;;;;;;2.43;2.23;;;4.10;99.90;5.00;99499.00;;;;5022918;28;20278;-71
2023/03/10 15:31:51;;;;;;;2.43;2.23;;;4.00;99.90;5.30;99552.00;;;;5034735;28;20210;-72
2023/03/10 15:34:34;;;;;;;1.67;1.57;;;4.10;99.90;5.50;99554.00;;;;5018210;28;20194;-71
2023/03/10 15:37:07;;;;;;;3.70;2.03;;;4.20;99.90;5.10;99567.00;;;;5034471;28;20190;-72
2023/03/10 15:40:04;;;;;;;2.30;2.03;;;4.20;99.90;4.90;99571.00;;;;5016017;28;20199;-72
2023/03/10 15:46:29;;;;;;;1.30;1.30;;;4.00;99.90;5.10;99613.00;;;;5033801;28;20203;-72
2023/03/10 15:49:24;;;;;;;2.27;1.90;;;4.10;99.90;5.20;99616.00;;;;5035759;28;20187;-72
2023/03/10 15:51:50;;;;;;;1.33;1.30;;;4.20;99.90;5.30;99586.00;;;;5030291;28;20657;-72
2023/03/10 15:54:39;;;;;;;1.40;1.40;;;4.20;99.90;5.60;99646.00;;;;5034534;28;20186;-71
2023/03/10 15:57:10;;;;;;;2.03;1.83;;;4.20;99.90;5.40;99645.00;;;;5034314;28;20281;-71
2023/03/10 15:59:45;;;;;;;1.60;1.60;;;4.40;99.90;5.60;99656.00;;;;5033273;28;20208;-71
2023/03/10 16:02:23;;;;;;;4.60;1.87;;;4.30;99.90;5.80;99681.00;;;;5060298;28;20200;-71
2023/03/10 16:04:51;;;;;;;1.57;1.57;;;4.50;99.90;5.80;99686.00;;;;5034431;28;20218;-71
2023/03/10 16:07:20;;;;;;;1.60;1.60;;;4.40;99.90;6.00;99707.00;;;;5018086;28;20197;-71
2023/03/10 16:09:55;;;;;;;1.50;1.50;;;4.40;99.90;6.50;99708.00;;;;5034329;28;20249;-71
2023/03/10 16:13:12;;;;;;;1.60;1.60;;;4.60;99.90;5.60;99687.00;;;;5030502;28;20214;-71
2023/03/10 16:16:07;;;;;;;1.50;1.50;;;4.50;99.90;6.20;99676.00;;;;5015524;28;20194;-72
2023/03/10 16:18:51;;;;;;;1.50;1.50;;;4.60;99.90;6.00;99687.00;;;;5030141;28;20190;-71
2023/03/10 16:21:46;;;;;;;1.40;1.40;;;4.60;99.90;6.30;99682.00;;;;5018212;28;20255;-71
2023/03/10 16:24:35;;;;;;;1.80;1.70;;;4.70;99.90;6.20;99733.00;;;;5015401;28;20194;-71
2023/03/10 16:27:24;;;;;;;1.40;1.40;;;4.80;99.90;6.90;99732.00;;;;5031104;28;20186;-72
2023/03/10 16:30:34;;;;;;;1.83;1.73;;;4.90;99.90;6.30;99751.00;;;;5017369;28;20277;-71
2023/03/10 16:33:06;;;;;;;1.33;1.33;;;4.80;99.90;5.90;99726.00;;;;5017792;28;20703;-72
2023/03/10 16:35:40;;;;;;;1.50;1.50;;;4.70;99.90;5.90;99763.00;;;;5021806;28;20213;-72
2023/03/10 16:38:06;;;;;;;1.50;1.50;;;4.70;99.90;6.10;99732.00;;;;5028359;28;20203;-72
2023/03/10 16:40:32;;;;;;;1.60;1.60;;;4.80;99.90;6.60;99800.00;;;;5017084;28;20641;-71
2023/03/10 16:43:31;;;;;;;1.37;1.37;;;4.80;99.90;6.30;99788.00;;;;5016931;28;20276;-71
2023/03/10 16:49:06;;;;;;;1.30;1.30;;;4.90;99.90;6.40;99808.00;;;;5033354;28;20190;-72
2023/03/10 16:52:09;;;;;;;1.63;1.63;;;4.80;99.90;6.50;99842.00;;;;5023273;28;20732;-71
2023/03/10 16:54:40;;;;;;;1.83;1.83;;;4.90;99.90;5.90;99845.00;;;;5018415;28;20182;-72
2023/03/10 16:57:11;;;;;;;1.43;1.43;;;4.70;99.90;6.10;99855.00;;;;5033461;28;20226;-71
2023/03/10 17:00:08;;;;;;;1.50;1.50;;;4.60;99.90;6.40;99868.00;;;;5019154;28;20179;-72
2023/03/10 17:02:47;;;;;;;1.43;1.43;;;4.70;99.90;6.70;99838.00;;;;5026426;28;20202;-72
2023/03/10 17:05:22;;;;;;;1.50;1.50;;;4.80;99.90;6.50;99891.00;;;;5016697;28;20278;-71
2023/03/10 17:08:01;;;;;;;1.87;1.77;;;4.80;99.90;6.20;99908.00;;;;5036167;28;20195;-71
2023/03/10 17:10:40;;;;;;;1.67;1.67;;;4.70;99.90;5.90;99902.00;;;;5016139;28;20599;-71
2023/03/10 17:13:29;;;;;;;1.40;1.40;;;4.50;99.90;5.80;99920.00;;;;5016862;28;20301;-72
2023/03/10 17:16:20;;;;;;;1.60;1.60;;;4.40;99.90;6.20;99917.00;;;;5033060;28;20186;-72
2023/03/10 17:18:49;;;;;;;1.73;1.73;;;4.50;99.90;5.90;99937.00;;;;5032449;28;20179;-71
2023/03/10 17:21:38;;;;;;;1.90;1.90;;;4.50;99.90;6.10;99930.00;;;;5024601;28;20202;-71
2023/03/10 17:24:09;;;;;;;1.70;1.70;;;4.40;99.90;6.00;99953.00;;;;5012060;28;20206;-71
2023/03/10 17:26:57;;;;;;;2.70;2.50;;;4.40;99.90;5.30;99951.00;;;;5016229;28;20191;-71
2023/03/10 17:29:50;;;;;;;1.83;1.80;;;4.30;99.90;5.80;99983.00;;;;5033040;28;20186;-72
2023/03/10 17:32:48;;;;;;;1.53;1.53;;;4.10;99.90;6.00;100013.00;;;;5029237;28;20222;-74
2023/03/10 17:35:43;;;;;;;1.80;1.80;;;4.30;99.90;5.80;100014.00;;;;5027819;28;20325;-73
2023/03/10 17:38:20;;;;;;;1.90;1.90;;;4.20;99.90;5.70;99986.00;;;;5018204;28;20202;-73
2023/03/10 17:40:46;;;;;;;2.30;2.10;;;4.10;99.90;5.90;100029.00;;;;5024657;28;20194;-73
2023/03/10 17:43:54;;;;;;;16.00;5.40;;;4.20;99.90;5.80;100042.00;;;;5032283;28;20186;-73
2023/03/10 17:46:36;;;;;;;1.70;1.70;;;4.20;99.90;5.50;100038.00;;;;5025897;28;20611;-73
2023/03/10 17:49:24;;;;;;;2.30;2.23;;;4.10;99.90;6.10;100057.00;;;;5016028;28;20182;-72
2023/03/10 17:51:50;;;;;;;2.20;2.10;;;4.20;99.90;5.60;100064.00;;;;5004423;28;20610;-73
2023/03/10 17:54:22;;;;;;;2.40;2.13;;;4.10;99.90;5.90;100030.00;;;;5043764;28;20236;-73
2023/03/10 17:56:51;;;;;;;1.70;1.70;;;4.10;99.90;5.90;100070.00;;;;5032459;28;20194;-73
2023/03/10 17:59:19;;;;;;;2.10;2.00;;;4.20;99.90;5.80;100053.00;;;;5044449;28;20232;-73
2023/03/10 18:01:48;;;;;;;1.90;1.90;;;4.20;99.90;6.30;100117.00;;;;5032205;28;20201;-72
2023/03/10 18:04:15;;;;;;;2.30;2.30;;;4.20;99.90;6.50;100113.00;;;;5031831;28;20189;-72
2023/03/10 18:06:44;;;;;;;2.50;2.40;;;4.30;99.90;6.70;100111.00;;;;5032176;28;20187;-72
2023/03/10 18:10:16;;;;;;;2.67;2.57;;;4.50;99.90;6.70;100094.00;;;;5015682;28;20198;-73
2023/03/10 18:13:01;;;;;;;1.93;1.93;;;4.50;99.90;6.50;100129.00;;;;5031497;28;20293;-72
2023/03/10 18:15:28;;;;;;;1.80;1.80;;;4.50;99.90;6.20;100135.00;;;;5028316;28;20187;-71
2023/03/10 18:17:59;;;;;;;2.30;2.30;;;4.50;99.90;7.00;100144.00;;;;5015746;28;20282;-72
2023/03/10 18:20:29;;;;;;;2.10;2.10;;;4.60;99.90;6.80;100147.00;;;;5031884;28;20224;-73
2023/03/10 18:23:09;;;;;;;2.47;2.47;;;4.70;99.90;7.20;100151.00;;;;5024044;28;20548;-73
2023/03/10 18:25:45;;;;;;;2.10;2.10;;;4.80;99.90;6.70;100128.00;;;;5030439;28;20721;-73
2023/03/10 18:28:18;;;;;;;1.90;1.90;;;4.80;99.90;6.70;100152.00;;;;5031837;28;20217;-72
2023/03/10 18:30:52;;;;;;;2.67;2.57;;;4.70;99.90;6.80;100147.00;;;;5031659;28;20273;-72
2023/03/10 18:33:24;;;;;;;3.27;3.13;;;4.70;99.90;7.10;100150.00;;;;5031643;28;20252;-72
2023/03/10 18:36:16;;;;;;;2.43;2.40;;;4.80;99.90;7.40;100143.00;;;;5032105;28;20183;-72
2023/03/10 18:38:49;;;;;;;3.33;2.80;;;5.00;99.90;7.20;100187.00;;;;5006595;28;20195;-72
2023/03/10 18:41:26;;;;;;;2.40;2.40;;;5.10;99.90;7.60;100199.00;;;;5015629;28;20312;-73
2023/03/10 18:44:04;;;;;;;3.10;3.00;;;5.10;99.90;7.50;100194.00;;;;5062742;28;20659;-73
2023/03/10 18:46:42;;;;;;;3.00;2.90;;;5.10;99.90;7.20;100193.00;;;;5026909;28;20193;-72
2023/03/10 18:49:08;;;;;;;3.20;3.10;;;5.00;99.90;7.40;100202.00;;;;5021681;28;20187;-73
2023/03/10 18:51:57;;;;;;;2.30;2.30;;;5.00;99.90;7.00;100209.00;;;;5014891;28;20192;-73
2023/03/10 18:54:55;;;;;;;2.00;2.00;;;4.80;99.90;6.80;100220.00;;;;5017275;28;20206;-73
2023/03/10 18:58:07;;;;;;;2.10;2.10;;;4.70;99.90;6.70;100218.00;;;;5012236;28;20602;-73
2023/03/10 19:01:11;;;;;;;3.07;1.83;;;4.70;99.90;6.40;100231.00;;;;5035022;28;20184;-73
2023/03/10 19:03:46;;;;;;;1.70;1.70;;;4.60;99.90;6.80;100239.00;;;;5033311;28;20229;-73
2023/03/10 19:06:33;;;;;;;1.90;1.90;;;4.60;99.90;7.20;100247.00;;;;5025585;28;20319;-73
2023/03/10 19:09:07;;;;;;;2.20;2.20;;;4.70;99.90;7.50;100253.00;;;;5018473;28;20660;-73
2023/03/10 19:12:03;;;;;;;2.60;2.50;;;4.80;99.90;7.20;100258.00;;;;5032782;28;20258;-72
2023/03/10 19:15:10;;;;;;;2.07;2.07;;;4.80;99.90;7.00;100238.00;;;;5047867;28;20207;-73
2023/03/10 19:17:59;;;;;;;2.10;2.10;;;4.90;99.90;6.80;100268.00;;;;5049517;28;20190;-73
2023/03/10 19:20:36;;;;;;;2.30;2.30;;;4.70;99.90;7.20;100280.00;;;;5045321;28;20198;-73
2023/03/10 19:23:08;;;;;;;2.40;2.40;;;4.70;99.90;7.10;100296.00;;;;5016710;28;20187;-73
2023/03/10 19:25:40;;;;;;;2.40;2.40;;;4.60;99.90;7.00;100296.00;;;;5050441;28;20183;-73
2023/03/10 19:28:39;;;;;;;2.30;2.30;;;4.50;99.90;7.30;100283.00;;;;5025505;28;20213;-71
2023/03/10 19:31:13;;;;;;;2.30;2.30;;;4.60;99.90;7.10;100290.00;;;;5034241;28;20195;-73
2023/03/10 19:33:43;;;;;;;2.20;2.20;;;4.50;99.90;6.80;100303.00;;;;5034582;28;20209;-73
2023/03/10 19:36:34;;;;;;;2.00;2.00;;;4.50;99.90;7.20;100309.00;;;;5018099;28;20194;-73
2023/03/10 19:39:22;;;;;;;2.10;2.10;;;4.60;99.90;7.00;100290.00;;;;5018901;28;20234;-71
2023/03/10 19:42:21;;;;;;;2.70;2.60;;;4.70;99.90;7.10;100305.00;;;;5018557;28;20267;-74
2023/03/10 19:44:50;;;;;;;2.30;2.30;;;4.60;99.90;7.40;100281.00;;;;5047670;28;20600;-72
2023/03/10 19:47:18;;;;;;;2.30;2.30;;;4.70;99.90;7.30;100307.00;;;;5018158;28;20185;-72
2023/03/10 19:50:07;;;;;;;2.30;2.30;;;4.70;99.90;7.10;100318.00;;;;5021956;28;20241;-74
2023/03/10 19:52:48;;;;;;;2.70;2.60;;;4.60;99.90;7.20;100322.00;;;;5040476;28;20233;-72